Time;durP1;ratioP1;P1;durP2;ratioP2;P2;SDS_P1;SDS_P2;PMS_P1;PMS_P2;Temp;Humidity;BMP_temperature;BMP_pressure;BME280_temperature;BME280_humidity;BME280_pressure;Samples;Min_cycle;Max_cycle;Signal;HPM_P1;HPM_P2
2023/12/06 00:00:48;;;;;;;57.35;23.40;;;;;;;;;;8530423;27;20512;-89
2023/12/06 00:05:11;;;;;;;61.22;22.10;;;;;;;;;;8530280;27;20490;-90
2023/12/06 00:09:14;;;;;;;57.63;23.55;;;;;;;;;;8530425;27;20125;-89
2023/12/06 00:13:17;;;;;;;64.53;25.15;;;;;;;;;;8530682;27;20054;-89
2023/12/06 00:17:22;;;;;;;74.47;27.98;;;;;;;;;;8496572;27;20078;-90
2023/12/06 00:21:25;;;;;;;62.30;22.45;;;;;;;;;;8495887;28;20138;-90
2023/12/06 00:25:28;;;;;;;53.30;20.42;;;;;;;;;;8496055;28;20062;-89
2023/12/06 00:29:31;;;;;;;44.28;20.63;;;;;;;;;;8495766;28;20095;-89
2023/12/06 00:33:35;;;;;;;50.83;20.85;;;;;;;;;;8495928;28;20047;-90
2023/12/06 00:37:39;;;;;;;63.67;23.63;;;;;;;;;;8497041;27;20046;-90
2023/12/06 00:41:42;;;;;;;90.57;27.33;;;;;;;;;;8502220;27;20039;-89
2023/12/06 00:45:45;;;;;;;108.40;33.65;;;;;;;;;;8501625;27;20043;-90
2023/12/06 00:49:49;;;;;;;108.25;38.25;;;;;;;;;;8501598;27;20095;-90
2023/12/06 00:53:53;;;;;;;83.32;30.13;;;;;;;;;;8501536;27;20123;-90
2023/12/06 00:57:55;;;;;;;84.47;30.15;;;;;;;;;;8501271;27;20051;-91
2023/12/06 01:01:58;;;;;;;73.68;28.13;;;;;;;;;;8697555;22;20661;-92
2023/12/06 01:10:29;;;;;;;80.03;30.13;;;;;;;;;;8401052;28;20051;-92
2023/12/06 01:14:32;;;;;;;72.85;27.17;;;;;;;;;;8401763;28;20123;-91
2023/12/06 01:18:36;;;;;;;74.15;28.17;;;;;;;;;;8401870;28;20048;-91
2023/12/06 01:22:40;;;;;;;57.40;23.65;;;;;;;;;;8401972;28;20041;-88
2023/12/06 01:26:43;;;;;;;39.13;17.08;;;;;;;;;;8401704;28;20407;-92
2023/12/06 01:30:47;;;;;;;47.95;20.40;;;;;;;;;;8401259;28;20457;-92
2023/12/06 01:34:50;;;;;;;61.97;22.58;;;;;;;;;;8401481;28;20052;-90
2023/12/06 01:43:36;;;;;;;56.88;24.58;;;;;;;;;;8366339;22;20145;-91
2023/12/06 01:47:41;;;;;;;53.20;19.83;;;;;;;;;;8367908;28;20116;-91
2023/12/06 01:51:44;;;;;;;71.43;25.25;;;;;;;;;;8367311;28;20467;-89
2023/12/06 01:55:49;;;;;;;56.22;23.58;;;;;;;;;;8367422;28;20495;-91
2023/12/06 01:59:55;;;;;;;38.22;18.48;;;;;;;;;;8367047;28;20045;-91
2023/12/06 02:03:58;;;;;;;59.92;23.73;;;;;;;;;;8367202;28;20055;-91
2023/12/06 02:08:03;;;;;;;33.25;14.27;;;;;;;;;;8367150;28;20048;-92
2023/12/06 02:12:08;;;;;;;61.78;24.58;;;;;;;;;;8366259;28;20057;-92
2023/12/06 02:16:11;;;;;;;45.92;19.83;;;;;;;;;;8367183;28;20123;-92
2023/12/06 02:20:15;;;;;;;25.48;10.23;;;;;;;;;;8366487;28;20041;-91
2023/12/06 02:24:20;;;;;;;75.22;29.48;;;;;;;;;;8366455;28;20503;-93
2023/12/06 02:28:25;;;;;;;42.50;18.25;;;;;;;;;;8366770;28;20617;-91
2023/12/06 02:32:28;;;;;;;67.95;28.25;;;;;;;;;;8366443;28;20071;-91
2023/12/06 02:36:32;;;;;;;66.78;28.45;;;;;;;;;;8366481;28;20044;-92
2023/12/06 02:40:36;;;;;;;47.22;19.58;;;;;;;;;;8365508;28;20053;-91
2023/12/06 02:44:41;;;;;;;70.07;19.80;;;;;;;;;;8366419;28;20044;-91
2023/12/06 02:48:44;;;;;;;44.95;20.00;;;;;;;;;;8366033;28;20124;-92
2023/12/06 02:52:47;;;;;;;42.70;19.35;;;;;;;;;;8365942;28;20040;-92
2023/12/06 02:56:50;;;;;;;22.58;10.90;;;;;;;;;;8364839;28;20140;-92
2023/12/06 03:00:54;;;;;;;44.38;20.38;;;;;;;;;;8364962;28;20055;-91
2023/12/06 03:04:57;;;;;;;41.53;20.13;;;;;;;;;;8365491;28;20468;-90
2023/12/06 03:09:00;;;;;;;33.90;19.45;;;;;;;;;;8365254;28;20049;-90
2023/12/06 03:13:03;;;;;;;22.02;11.95;;;;;;;;;;8365734;28;20476;-90
2023/12/06 03:17:07;;;;;;;37.88;16.55;;;;;;;;;;8365477;28;20048;-92
2023/12/06 03:21:10;;;;;;;47.70;22.90;;;;;;;;;;8365017;28;20118;-90
2023/12/06 03:25:13;;;;;;;41.40;16.42;;;;;;;;;;8364752;28;20480;-90
2023/12/06 03:29:16;;;;;;;60.08;24.25;;;;;;;;;;8365247;28;20051;-90
2023/12/06 03:33:22;;;;;;;69.40;27.33;;;;;;;;;;8365404;28;20053;-89
2023/12/06 03:37:28;;;;;;;59.40;25.33;;;;;;;;;;8366049;28;20087;-90
2023/12/06 03:41:31;;;;;;;66.78;24.65;;;;;;;;;;8365101;28;20385;-90
2023/12/06 03:45:34;;;;;;;66.72;24.85;;;;;;;;;;8363613;28;20049;-91
2023/12/06 03:49:38;;;;;;;48.53;19.05;;;;;;;;;;8363836;28;20051;-91
2023/12/06 03:53:41;;;;;;;30.23;17.13;;;;;;;;;;8364155;28;20559;-90
2023/12/06 03:57:46;;;;;;;57.38;21.42;;;;;;;;;;8363769;28;20053;-89
2023/12/06 04:01:49;;;;;;;62.90;22.23;;;;;;;;;;8363382;28;20060;-91
2023/12/06 04:05:54;;;;;;;23.88;12.35;;;;;;;;;;8363744;28;20073;-90
2023/12/06 04:09:57;;;;;;;37.30;17.13;;;;;;;;;;8363271;28;20060;-91
2023/12/06 04:14:00;;;;;;;57.80;23.30;;;;;;;;;;8367683;28;20041;-91
2023/12/06 04:18:03;;;;;;;14.95;9.50;;;;;;;;;;8370389;28;20145;-91
2023/12/06 04:22:10;;;;;;;49.40;18.35;;;;;;;;;;8370019;28;20041;-91
2023/12/06 04:26:13;;;;;;;38.28;16.58;;;;;;;;;;8369861;28;20037;-91
2023/12/06 04:30:16;;;;;;;60.42;25.00;;;;;;;;;;8369938;28;20071;-89
2023/12/06 04:34:20;;;;;;;50.78;18.65;;;;;;;;;;8370313;28;20049;-91
2023/12/06 04:38:24;;;;;;;43.47;18.80;;;;;;;;;;8369819;28;20041;-90
2023/12/06 04:42:27;;;;;;;33.58;18.08;;;;;;;;;;8369263;28;20121;-90
2023/12/06 04:46:30;;;;;;;8.15;4.13;;;;;;;;;;8368292;28;20174;-91
2023/12/06 04:50:33;;;;;;;61.95;26.08;;;;;;;;;;8369044;28;20048;-92
2023/12/06 04:54:39;;;;;;;23.38;10.30;;;;;;;;;;8403973;22;20115;-91
2023/12/06 04:58:42;;;;;;;60.08;22.42;;;;;;;;;;8303300;28;20512;-91
2023/12/06 05:02:45;;;;;;;86.78;29.02;;;;;;;;;;8302390;28;20062;-88
2023/12/06 05:06:48;;;;;;;54.85;23.75;;;;;;;;;;8303187;28;20489;-91
2023/12/06 05:10:52;;;;;;;6.18;5.63;;;;;;;;;;8303457;28;20052;-90
2023/12/06 05:14:55;;;;;;;71.05;27.50;;;;;;;;;;8303045;28;20053;-91
2023/12/06 05:18:58;;;;;;;57.88;23.67;;;;;;;;;;8302824;28;20045;-90
2023/12/06 05:23:02;;;;;;;50.50;17.75;;;;;;;;;;8302157;28;20046;-89
2023/12/06 05:27:07;;;;;;;64.38;26.45;;;;;;;;;;8302415;28;20460;-92
2023/12/06 05:31:10;;;;;;;77.25;27.80;;;;;;;;;;8302239;28;20529;-91
2023/12/06 05:35:13;;;;;;;49.67;16.58;;;;;;;;;;8302805;28;20076;-91
2023/12/06 05:39:17;;;;;;;68.93;29.10;;;;;;;;;;8337063;28;20053;-90
2023/12/06 05:43:23;;;;;;;37.13;17.20;;;;;;;;;;8339727;28;20066;-90
2023/12/06 05:47:44;;;;;;;43.33;16.65;;;;;;;;;;8341255;28;20125;-89
2023/12/06 05:51:52;;;;;;;41.72;18.92;;;;;;;;;;8338185;28;20058;-90
2023/12/06 05:55:56;;;;;;;35.10;13.73;;;;;;;;;;8339854;28;20049;-89
2023/12/06 06:00:00;;;;;;;19.17;8.82;;;;;;;;;;8329812;28;20045;-91
2023/12/06 06:04:05;;;;;;;21.45;9.45;;;;;;;;;;8334357;28;20520;-90
2023/12/06 06:08:08;;;;;;;28.00;13.48;;;;;;;;;;8332376;28;20133;-89
2023/12/06 06:12:11;;;;;;;19.75;12.43;;;;;;;;;;8318107;28;20482;-91
2023/12/06 06:16:19;;;;;;;33.78;16.02;;;;;;;;;;8303006;28;20049;-90
2023/12/06 06:20:22;;;;;;;44.75;15.02;;;;;;;;;;8301643;28;20053;-90
2023/12/06 06:24:25;;;;;;;71.60;26.17;;;;;;;;;;8336990;28;20056;-88
2023/12/06 06:28:29;;;;;;;79.85;27.60;;;;;;;;;;8339241;28;20053;-91
2023/12/06 06:32:37;;;;;;;31.05;15.77;;;;;;;;;;8329592;28;20425;-91
2023/12/06 06:36:41;;;;;;;87.00;27.73;;;;;;;;;;8298398;28;20056;-91
2023/12/06 06:40:43;;;;;;;101.07;26.90;;;;;;;;;;8299670;28;20451;-91
2023/12/06 06:44:47;;;;;;;67.78;24.92;;;;;;;;;;8442329;22;20058;-91
2023/12/06 06:49:08;;;;;;;46.95;17.35;;;;;;;;;;8300461;28;20065;-91
2023/12/06 06:53:23;;;;;;;107.38;33.63;;;;;;;;;;8300723;28;20049;-90
2023/12/06 06:57:28;;;;;;;115.65;34.13;;;;;;;;;;8300278;28;20046;-92
2023/12/06 07:01:31;;;;;;;57.60;22.58;;;;;;;;;;8300203;28;20073;-91
2023/12/06 07:05:37;;;;;;;104.38;33.42;;;;;;;;;;8298953;28;20132;-91
2023/12/06 07:09:40;;;;;;;76.85;24.23;;;;;;;;;;8300144;28;20045;-90
2023/12/06 07:13:43;;;;;;;68.00;28.42;;;;;;;;;;8299861;28;20128;-91
2023/12/06 07:17:47;;;;;;;57.22;21.50;;;;;;;;;;8299304;28;20050;-92
2023/12/06 07:21:52;;;;;;;82.82;29.02;;;;;;;;;;8299744;28;20066;-92
2023/12/06 07:25:55;;;;;;;71.13;25.50;;;;;;;;;;8299488;28;20139;-92
2023/12/06 07:29:58;;;;;;;64.40;23.08;;;;;;;;;;8299291;28;20516;-91
2023/12/06 07:34:01;;;;;;;67.50;28.67;;;;;;;;;;8299436;28;20042;-92
2023/12/06 07:38:09;;;;;;;54.20;20.08;;;;;;;;;;8299071;28;20102;-92
2023/12/06 07:42:12;;;;;;;53.83;21.02;;;;;;;;;;8298935;28;20053;-90
2023/12/06 07:46:15;;;;;;;73.30;29.52;;;;;;;;;;8299521;28;20053;-92
2023/12/06 07:50:20;;;;;;;71.57;24.67;;;;;;;;;;8305379;28;20512;-92
2023/12/06 07:54:25;;;;;;;53.40;23.05;;;;;;;;;;8410278;22;20460;-92
2023/12/06 07:58:30;;;;;;;68.63;23.88;;;;;;;;;;8337012;28;20507;-92
2023/12/06 08:02:33;;;;;;;55.85;23.67;;;;;;;;;;8337892;28;20052;-93
2023/12/06 08:11:56;;;;;;;49.65;18.65;;;;;;;;;;8336848;28;20039;-92
2023/12/06 08:15:59;;;;;;;8.63;5.97;;;;;;;;;;8337757;28;20470;-91
2023/12/06 08:20:05;;;;;;;38.00;15.93;;;;;;;;;;8336971;28;20083;-91
2023/12/06 08:24:08;;;;;;;59.22;21.35;;;;;;;;;;8337466;28;20132;-91
2023/12/06 08:28:12;;;;;;;64.35;24.83;;;;;;;;;;8337335;28;20060;-90
2023/12/06 08:32:15;;;;;;;59.60;22.48;;;;;;;;;;8336844;28;20061;-90
2023/12/06 08:40:59;;;;;;;60.22;22.38;;;;;;;;;;8293548;28;20115;-92
2023/12/06 08:45:38;;;;;;;54.40;18.70;;;;;;;;;;8337218;28;20465;-92
2023/12/06 08:49:42;;;;;;;79.32;29.35;;;;;;;;;;8337590;28;20056;-92
2023/12/06 08:54:00;;;;;;;54.58;20.65;;;;;;;;;;8336796;28;20057;-91
2023/12/06 08:58:04;;;;;;;44.22;17.65;;;;;;;;;;8335740;28;20397;-92
2023/12/06 09:02:07;;;;;;;60.30;21.95;;;;;;;;;;8344102;22;20057;-93
2023/12/06 09:06:15;;;;;;;67.88;24.10;;;;;;;;;;8336625;28;20049;-92
2023/12/06 09:10:18;;;;;;;54.53;18.92;;;;;;;;;;8336569;28;20050;-92
2023/12/06 09:14:21;;;;;;;53.67;19.38;;;;;;;;;;8336338;28;20619;-93
2023/12/06 09:18:24;;;;;;;66.05;24.77;;;;;;;;;;8336181;28;20049;-92
2023/12/06 09:22:28;;;;;;;53.80;19.13;;;;;;;;;;8337724;28;20053;-92
2023/12/06 09:26:31;;;;;;;62.63;21.73;;;;;;;;;;8337439;28;20499;-92
2023/12/06 09:30:37;;;;;;;62.55;22.27;;;;;;;;;;8336786;28;20050;-91
2023/12/06 09:34:41;;;;;;;75.50;25.17;;;;;;;;;;8334567;28;20049;-92
2023/12/06 09:38:46;;;;;;;67.85;25.95;;;;;;;;;;8333832;28;20452;-91
2023/12/06 09:42:54;;;;;;;98.40;30.40;;;;;;;;;;8334110;28;20099;-92
2023/12/06 09:47:00;;;;;;;74.43;27.42;;;;;;;;;;8335309;28;20096;-93
2023/12/06 09:51:04;;;;;;;88.47;29.08;;;;;;;;;;8334863;28;20061;-92
2023/12/06 09:55:09;;;;;;;75.55;28.38;;;;;;;;;;8334249;28;20416;-89
2023/12/06 09:59:12;;;;;;;70.13;25.02;;;;;;;;;;8334870;28;20073;-92
2023/12/06 10:03:27;;;;;;;84.10;27.92;;;;;;;;;;8333405;28;20605;-93
2023/12/06 10:07:36;;;;;;;149.57;46.03;;;;;;;;;;8334755;28;20042;-91
2023/12/06 10:11:45;;;;;;;63.40;26.17;;;;;;;;;;8331180;28;20084;-93
2023/12/06 10:15:51;;;;;;;78.50;25.95;;;;;;;;;;8301289;28;20053;-92
2023/12/06 10:20:00;;;;;;;58.17;25.02;;;;;;;;;;8301451;28;20065;-93
2023/12/06 10:24:09;;;;;;;81.65;27.65;;;;;;;;;;8301732;28;20052;-93
2023/12/06 10:28:15;;;;;;;61.28;24.85;;;;;;;;;;8302357;28;20108;-93
2023/12/06 10:32:21;;;;;;;68.22;26.05;;;;;;;;;;8301251;28;20052;-91
2023/12/06 10:36:27;;;;;;;74.35;25.02;;;;;;;;;;8301411;28;20050;-91
2023/12/06 10:40:30;;;;;;;60.13;25.88;;;;;;;;;;8302607;28;20054;-91
2023/12/06 10:44:35;;;;;;;58.40;22.45;;;;;;;;;;8298838;28;20053;-90
2023/12/06 10:48:39;;;;;;;61.60;21.33;;;;;;;;;;8298392;28;20475;-88
2023/12/06 10:52:45;;;;;;;62.50;22.02;;;;;;;;;;8298235;28;20092;-88
2023/12/06 10:56:49;;;;;;;57.80;20.95;;;;;;;;;;8297023;28;20111;-90
2023/12/06 11:00:54;;;;;;;53.53;19.60;;;;;;;;;;8298186;28;20045;-90
2023/12/06 11:05:05;;;;;;;59.25;23.60;;;;;;;;;;8298498;28;20133;-91
2023/12/06 11:09:24;;;;;;;41.38;18.05;;;;;;;;;;8298370;28;20478;-89
2023/12/06 11:13:40;;;;;;;68.57;23.50;;;;;;;;;;8297750;28;20042;-89
2023/12/06 11:18:02;;;;;;;22.23;8.23;;;;;;;;;;8298602;28;20042;-90
2023/12/06 11:22:06;;;;;;;63.92;22.45;;;;;;;;;;8298107;28;20407;-91
2023/12/06 11:26:09;;;;;;;54.00;19.02;;;;;;;;;;8298424;28;20495;-88
2023/12/06 11:30:17;;;;;;;55.92;22.20;;;;;;;;;;8297976;28;20054;-90
2023/12/06 11:34:34;;;;;;;50.00;19.98;;;;;;;;;;8297871;28;20080;-90
2023/12/06 11:38:39;;;;;;;26.70;11.27;;;;;;;;;;8297718;28;20112;-90
2023/12/06 11:42:42;;;;;;;39.10;16.25;;;;;;;;;;8297666;28;20478;-90
2023/12/06 11:46:52;;;;;;;67.00;23.85;;;;;;;;;;8298086;28;20049;-90
2023/12/06 11:51:00;;;;;;;59.47;23.98;;;;;;;;;;8297498;28;20049;-91
2023/12/06 11:55:04;;;;;;;54.13;20.67;;;;;;;;;;8297366;28;20045;-91
2023/12/06 11:59:07;;;;;;;62.30;24.90;;;;;;;;;;8297448;28;20045;-90
2023/12/06 12:03:11;;;;;;;60.83;24.70;;;;;;;;;;8297057;28;20513;-90
2023/12/06 12:07:16;;;;;;;55.33;23.58;;;;;;;;;;8296999;28;20552;-88
2023/12/06 12:11:19;;;;;;;62.40;27.75;;;;;;;;;;8297414;28;20084;-90
2023/12/06 12:15:22;;;;;;;73.57;30.35;;;;;;;;;;8297419;28;20046;-90
2023/12/06 12:19:27;;;;;;;64.20;25.48;;;;;;;;;;8297257;28;20477;-89
2023/12/06 12:23:31;;;;;;;56.38;23.70;;;;;;;;;;8297035;28;20104;-90
2023/12/06 12:27:35;;;;;;;55.17;23.13;;;;;;;;;;8296483;28;20053;-91
2023/12/06 12:31:38;;;;;;;64.55;24.35;;;;;;;;;;8296777;28;20053;-90
2023/12/06 12:35:41;;;;;;;68.30;24.73;;;;;;;;;;8301025;28;20401;-91
2023/12/06 12:39:46;;;;;;;56.95;25.45;;;;;;;;;;8302364;28;20444;-90
2023/12/06 12:43:49;;;;;;;63.90;23.77;;;;;;;;;;8301939;28;20151;-89
2023/12/06 12:47:52;;;;;;;90.35;30.85;;;;;;;;;;8302406;28;20046;-89
2023/12/06 12:51:56;;;;;;;44.03;17.83;;;;;;;;;;8302268;28;20049;-89
2023/12/06 12:56:00;;;;;;;54.50;19.90;;;;;;;;;;8302462;28;20635;-90
2023/12/06 13:00:05;;;;;;;69.10;26.65;;;;;;;;;;8302954;28;20490;-93
2023/12/06 13:04:08;;;;;;;60.05;22.33;;;;;;;;;;8304085;28;20058;-94
2023/12/06 13:08:12;;;;;;;65.15;26.08;;;;;;;;;;8304108;28;20076;-92
2023/12/06 13:12:28;;;;;;;68.38;23.30;;;;;;;;;;8303910;28;20077;-92
2023/12/06 13:16:31;;;;;;;64.97;24.23;;;;;;;;;;8303466;28;20052;-94
2023/12/06 13:20:37;;;;;;;39.05;17.48;;;;;;;;;;8303260;28;20069;-94
2023/12/06 13:24:41;;;;;;;63.10;23.95;;;;;;;;;;8303509;28;20125;-92
2023/12/06 13:29:02;;;;;;;59.30;23.55;;;;;;;;;;8297728;28;20046;-92
2023/12/06 13:33:19;;;;;;;65.97;24.80;;;;;;;;;;8302811;28;20417;-93
2023/12/06 13:37:25;;;;;;;47.33;17.92;;;;;;;;;;8336213;23;20061;-94
2023/12/06 13:41:31;;;;;;;47.05;18.50;;;;;;;;;;8335643;28;20041;-92
2023/12/06 13:45:49;;;;;;;60.22;23.52;;;;;;;;;;8334695;28;20059;-93
2023/12/06 13:49:56;;;;;;;47.60;20.50;;;;;;;;;;8334794;28;20045;-93
2023/12/06 13:54:00;;;;;;;54.47;20.88;;;;;;;;;;8426716;22;20058;-93
2023/12/06 13:58:04;;;;;;;50.38;20.40;;;;;;;;;;8335691;28;20067;-94
2023/12/06 14:02:09;;;;;;;50.92;19.38;;;;;;;;;;8335308;28;20052;-95
2023/12/06 14:06:12;;;;;;;45.50;19.90;;;;;;;;;;8334350;28;20497;-94
2023/12/06 14:10:16;;;;;;;43.55;15.95;;;;;;;;;;8335267;28;20080;-95
2023/12/06 14:14:19;;;;;;;58.00;23.52;;;;;;;;;;8333914;28;20048;-94
2023/12/06 14:18:25;;;;;;;31.17;14.50;;;;;;;;;;8444971;22;20056;-93
2023/12/06 14:27:58;;;;;;;115.68;41.78;;;;;;;;;;8334443;28;20310;-91
2023/12/06 14:32:01;;;;;;;76.10;27.85;;;;;;;;;;8334440;28;20052;-93
2023/12/06 14:36:25;;;;;;;71.97;24.90;;;;;;;;;;8333201;28;20049;-94
2023/12/06 14:40:28;;;;;;;39.85;17.92;;;;;;;;;;8341378;22;20543;-92
2023/12/06 14:44:32;;;;;;;33.08;10.40;;;;;;;;;;8334064;28;20065;-93
2023/12/06 14:48:36;;;;;;;63.53;25.48;;;;;;;;;;8333691;28;20132;-94
2023/12/06 14:52:42;;;;;;;54.05;20.10;;;;;;;;;;8333796;28;20451;-92
2023/12/06 14:56:49;;;;;;;31.23;14.90;;;;;;;;;;8332633;28;20049;-94
2023/12/06 15:00:53;;;;;;;50.15;19.85;;;;;;;;;;8333452;28;20056;-92
2023/12/06 15:04:56;;;;;;;56.63;23.58;;;;;;;;;;8332040;28;20077;-92
2023/12/06 15:09:00;;;;;;;36.08;15.30;;;;;;;;;;8331923;28;20049;-93
2023/12/06 15:13:03;;;;;;;41.67;17.73;;;;;;;;;;8333097;28;20050;-93
2023/12/06 15:17:06;;;;;;;66.45;22.35;;;;;;;;;;8333676;28;20037;-93
2023/12/06 15:21:12;;;;;;;64.97;20.88;;;;;;;;;;8333226;28;20404;-92
2023/12/06 15:25:17;;;;;;;38.95;13.02;;;;;;;;;;8334063;28;20053;-92
2023/12/06 15:29:19;;;;;;;57.05;21.35;;;;;;;;;;8330706;28;20124;-92
2023/12/06 15:33:22;;;;;;;56.45;24.70;;;;;;;;;;8330852;28;20057;-92
2023/12/06 15:42:35;;;;;;;43.97;20.85;;;;;;;;;;8316327;28;20069;-91
2023/12/06 15:46:41;;;;;;;128.98;45.70;;;;;;;;;;8331499;28;20049;-93
2023/12/06 15:50:44;;;;;;;61.85;22.25;;;;;;;;;;8332583;28;20540;-92
2023/12/06 15:54:47;;;;;;;72.15;23.98;;;;;;;;;;8332059;28;20049;-91
2023/12/06 15:59:00;;;;;;;249.57;62.10;;;;;;;;;;8331504;28;20101;-92
2023/12/06 16:03:03;;;;;;;51.55;17.15;;;;;;;;;;8313436;28;20093;-92
2023/12/06 16:07:09;;;;;;;251.60;62.63;;;;;;;;;;8300054;28;20046;-93
2023/12/06 16:11:15;;;;;;;62.72;20.88;;;;;;;;;;8304176;28;20046;-93
2023/12/06 16:15:22;;;;;;;105.50;31.52;;;;;;;;;;8305619;28;20647;-89
2023/12/06 16:19:28;;;;;;;67.35;25.65;;;;;;;;;;8305275;28;20053;-92
2023/12/06 16:23:34;;;;;;;78.90;26.38;;;;;;;;;;8305781;28;20045;-93
2023/12/06 16:27:38;;;;;;;90.55;27.25;;;;;;;;;;8304717;28;20060;-90
2023/12/06 16:32:00;;;;;;;59.00;19.33;;;;;;;;;;8237347;28;20053;-90
2023/12/06 16:36:03;;;;;;;51.15;20.80;;;;;;;;;;8270724;28;20482;-94
2023/12/06 16:40:08;;;;;;;109.93;29.73;;;;;;;;;;8304651;28;20087;-93
2023/12/06 16:44:14;;;;;;;84.00;25.85;;;;;;;;;;8304794;28;20056;-93
2023/12/06 16:48:19;;;;;;;12.43;5.63;;;;;;;;;;8305060;28;20056;-91
2023/12/06 16:52:22;;;;;;;73.05;22.95;;;;;;;;;;8304796;28;20194;-92
2023/12/06 16:56:25;;;;;;;51.67;21.33;;;;;;;;;;8304092;28;20045;-93
2023/12/06 17:00:28;;;;;;;144.13;64.78;;;;;;;;;;8304698;28;20099;-91
2023/12/06 17:04:33;;;;;;;509.77;215.27;;;;;;;;;;8304125;28;20120;-91
2023/12/06 17:08:38;;;;;;;66.43;28.38;;;;;;;;;;8304606;28;20049;-94
2023/12/06 17:12:42;;;;;;;71.30;24.13;;;;;;;;;;8303266;28;20061;-92
2023/12/06 17:16:45;;;;;;;238.25;55.30;;;;;;;;;;8303897;28;20046;-93
2023/12/06 17:20:52;;;;;;;59.15;22.65;;;;;;;;;;8303022;28;20060;-93
2023/12/06 17:24:55;;;;;;;96.38;29.17;;;;;;;;;;8303002;28;20164;-92
2023/12/06 17:28:59;;;;;;;56.63;22.15;;;;;;;;;;8303613;28;20065;-93
2023/12/06 17:33:02;;;;;;;227.80;63.97;;;;;;;;;;8303111;28;20401;-93
2023/12/06 17:37:10;;;;;;;87.13;30.25;;;;;;;;;;8302986;28;20046;-91
2023/12/06 17:41:14;;;;;;;100.75;31.40;;;;;;;;;;8303280;28;20478;-92
2023/12/06 17:45:20;;;;;;;110.00;39.33;;;;;;;;;;8302588;28;20049;-92
2023/12/06 17:49:26;;;;;;;49.83;20.35;;;;;;;;;;8302785;28;20064;-92
2023/12/06 17:53:33;;;;;;;142.90;52.90;;;;;;;;;;8302883;28;20124;-93
2023/12/06 17:57:39;;;;;;;147.40;49.63;;;;;;;;;;8302127;28;20061;-92
2023/12/06 18:01:53;;;;;;;88.57;29.48;;;;;;;;;;8302327;28;20066;-92
2023/12/06 18:06:08;;;;;;;83.20;31.30;;;;;;;;;;8302437;28;20046;-93
2023/12/06 18:10:16;;;;;;;82.72;29.80;;;;;;;;;;8302230;28;20137;-92
2023/12/06 18:14:21;;;;;;;50.03;20.17;;;;;;;;;;8302630;28;20168;-93
2023/12/06 18:18:28;;;;;;;203.00;67.68;;;;;;;;;;8302050;28;20062;-93
2023/12/06 18:22:34;;;;;;;119.05;40.03;;;;;;;;;;8300301;28;20050;-93
2023/12/06 18:26:43;;;;;;;171.35;52.75;;;;;;;;;;8300383;28;20506;-93
2023/12/06 18:30:55;;;;;;;98.40;33.28;;;;;;;;;;8300352;28;20145;-94
2023/12/06 18:35:00;;;;;;;131.30;35.70;;;;;;;;;;8301336;28;20069;-92
2023/12/06 18:39:06;;;;;;;99.22;30.95;;;;;;;;;;8301198;28;20069;-92
2023/12/06 18:43:15;;;;;;;74.60;29.75;;;;;;;;;;8300434;28;20542;-94
2023/12/06 18:47:21;;;;;;;125.40;39.38;;;;;;;;;;8300276;28;20050;-94
2023/12/06 18:51:26;;;;;;;72.70;24.33;;;;;;;;;;8301062;28;20175;-93
2023/12/06 18:55:32;;;;;;;74.60;28.85;;;;;;;;;;8300675;28;20050;-94
2023/12/06 18:59:39;;;;;;;316.20;110.95;;;;;;;;;;8300678;28;20049;-93
2023/12/06 19:03:45;;;;;;;90.78;35.85;;;;;;;;;;8300507;28;20044;-94
2023/12/06 19:07:50;;;;;;;53.28;21.70;;;;;;;;;;8300675;28;20052;-93
2023/12/06 19:11:58;;;;;;;55.58;20.42;;;;;;;;;;8300625;28;20046;-94
2023/12/06 19:16:10;;;;;;;90.88;26.45;;;;;;;;;;8300681;28;20046;-93
2023/12/06 19:20:16;;;;;;;57.22;20.45;;;;;;;;;;8300340;28;20053;-93
2023/12/06 19:24:22;;;;;;;93.10;37.60;;;;;;;;;;8300383;28;20504;-93
2023/12/06 19:28:29;;;;;;;56.25;21.17;;;;;;;;;;8300051;28;20047;-93
2023/12/06 19:32:37;;;;;;;258.25;82.60;;;;;;;;;;8300286;28;20046;-93
2023/12/06 19:37:10;;;;;;;50.38;18.88;;;;;;;;;;8292911;28;20049;-92
2023/12/06 19:42:11;;;;;;;71.70;25.30;;;;;;;;;;8241486;28;20504;-93
2023/12/06 19:46:21;;;;;;;43.58;18.23;;;;;;;;;;8241104;28;20049;-93
2023/12/06 19:50:28;;;;;;;94.50;31.95;;;;;;;;;;8241523;28;20051;-93
2023/12/06 19:54:33;;;;;;;58.17;22.73;;;;;;;;;;8318907;23;20052;-94
2023/12/06 19:58:38;;;;;;;63.47;22.13;;;;;;;;;;8405250;28;20055;-93
2023/12/06 20:02:44;;;;;;;63.75;24.73;;;;;;;;;;8405754;28;20066;-93
2023/12/06 20:06:58;;;;;;;105.07;35.97;;;;;;;;;;8405319;28;20052;-92
2023/12/06 20:11:04;;;;;;;79.05;26.25;;;;;;;;;;8405558;28;20041;-94
2023/12/06 20:15:15;;;;;;;54.70;19.73;;;;;;;;;;8405207;28;20363;-94
2023/12/06 20:19:21;;;;;;;70.38;29.17;;;;;;;;;;8404465;28;20079;-92
2023/12/06 20:23:28;;;;;;;86.20;29.02;;;;;;;;;;8404093;28;20049;-93
2023/12/06 20:27:34;;;;;;;109.90;31.55;;;;;;;;;;8405020;28;20044;-93
2023/12/06 20:42:42;;;;;;;72.50;23.90;;;;;;;;;;8206832;28;20088;-93
2023/12/06 20:46:49;;;;;;;81.10;26.98;;;;;;;;;;8205700;29;20051;-93
2023/12/06 20:50:58;;;;;;;63.88;24.38;;;;;;;;;;8189114;29;20067;-94
2023/12/06 20:55:07;;;;;;;73.35;25.42;;;;;;;;;;8187794;28;20411;-88
2023/12/06 20:59:18;;;;;;;64.07;22.45;;;;;;;;;;8189159;29;20066;-93
2023/12/06 21:03:27;;;;;;;83.57;24.20;;;;;;;;;;8188928;29;20055;-94
2023/12/06 21:07:40;;;;;;;70.40;23.17;;;;;;;;;;8243008;28;20525;-94
2023/12/06 21:11:46;;;;;;;77.53;24.23;;;;;;;;;;8332784;28;20072;-94
2023/12/06 21:15:52;;;;;;;56.13;20.85;;;;;;;;;;8370637;28;20075;-94
2023/12/06 21:19:55;;;;;;;51.63;20.50;;;;;;;;;;8402527;28;20051;-87
2023/12/06 21:24:00;;;;;;;63.17;23.50;;;;;;;;;;8400570;28;20052;-92
2023/12/06 21:28:04;;;;;;;73.82;20.98;;;;;;;;;;8401288;28;20403;-93
2023/12/06 21:32:08;;;;;;;92.63;22.80;;;;;;;;;;8400691;28;20052;-93
2023/12/06 21:36:12;;;;;;;91.25;25.27;;;;;;;;;;8401714;28;20049;-90
2023/12/06 21:40:24;;;;;;;61.58;20.73;;;;;;;;;;8401779;28;20051;-92
2023/12/06 21:44:27;;;;;;;172.05;48.35;;;;;;;;;;8401524;28;20045;-93
2023/12/06 21:48:32;;;;;;;108.55;30.42;;;;;;;;;;8401269;28;20049;-93
2023/12/06 21:52:38;;;;;;;69.72;19.45;;;;;;;;;;8401072;28;20071;-94
2023/12/06 21:56:41;;;;;;;57.63;18.17;;;;;;;;;;8401226;28;20049;-92
2023/12/06 22:00:44;;;;;;;88.22;26.33;;;;;;;;;;8399196;28;20190;-92
2023/12/06 22:04:49;;;;;;;79.85;25.63;;;;;;;;;;8407900;22;20131;-92
2023/12/06 22:08:53;;;;;;;52.08;18.17;;;;;;;;;;8401314;28;20543;-94
2023/12/06 22:12:59;;;;;;;61.05;21.00;;;;;;;;;;8400480;28;20129;-93
2023/12/06 22:17:03;;;;;;;72.80;22.60;;;;;;;;;;8399910;28;20044;-93
2023/12/06 22:26:36;;;;;;;256.70;60.45;;;;;;;;;;8382706;28;20059;-93
2023/12/06 22:30:57;;;;;;;68.95;23.20;;;;;;;;;;8399967;28;20052;-93
2023/12/06 22:35:03;;;;;;;183.15;49.70;;;;;;;;;;8400332;28;20044;-93
2023/12/06 22:39:06;;;;;;;58.17;21.48;;;;;;;;;;8400189;28;20097;-92
2023/12/06 22:43:11;;;;;;;176.63;51.00;;;;;;;;;;8383075;28;20049;-93
2023/12/06 22:47:14;;;;;;;129.82;38.85;;;;;;;;;;8399711;28;20045;-93
2023/12/06 22:51:17;;;;;;;94.22;25.50;;;;;;;;;;8399962;28;20480;-91
2023/12/06 22:55:20;;;;;;;299.40;75.63;;;;;;;;;;8382554;28;20507;-93
2023/12/06 22:59:24;;;;;;;146.25;37.20;;;;;;;;;;8399799;28;20135;-91
2023/12/06 23:03:27;;;;;;;334.17;85.65;;;;;;;;;;8399402;28;20075;-94
2023/12/06 23:07:31;;;;;;;111.13;28.35;;;;;;;;;;8382355;28;20056;-92
2023/12/06 23:11:33;;;;;;;54.70;18.52;;;;;;;;;;8400100;28;20123;-94
2023/12/06 23:15:39;;;;;;;165.07;43.53;;;;;;;;;;8399382;28;20044;-91
2023/12/06 23:19:45;;;;;;;179.07;48.47;;;;;;;;;;8398879;28;20530;-92
2023/12/06 23:23:47;;;;;;;152.85;42.90;;;;;;;;;;8399848;28;20048;-93
2023/12/06 23:27:51;;;;;;;159.50;47.63;;;;;;;;;;8399155;28;20046;-95
2023/12/06 23:31:55;;;;;;;76.15;26.65;;;;;;;;;;8400006;28;20453;-93
2023/12/06 23:35:58;;;;;;;51.92;19.45;;;;;;;;;;8382671;28;20053;-93
2023/12/06 23:40:01;;;;;;;74.90;25.20;;;;;;;;;;8399584;28;20498;-93
2023/12/06 23:44:06;;;;;;;101.28;32.63;;;;;;;;;;8382508;28;20056;-92
2023/12/06 23:48:44;;;;;;;57.70;20.60;;;;;;;;;;8382125;28;20043;-91
2023/12/06 23:52:51;;;;;;;90.25;30.83;;;;;;;;;;8348917;28;20057;-93
2023/12/06 23:56:54;;;;;;;51.72;18.77;;;;;;;;;;8399075;28;20127;-94
